Time;durP1;ratioP1;P1;durP2;ratioP2;P2;SDS_P1;SDS_P2;PMS_P1;PMS_P2;Temp;Humidity;BMP_temperature;BMP_pressure;BME280_temperature;BME280_humidity;BME280_pressure;Samples;Min_cycle;Max_cycle;Signal;HPM_P1;HPM_P2
2023/01/27 00:01:32;;;;;;;5.50;5.30;;;15.30;64.00;;;;;;5068278;28;43405;-71
2023/01/27 00:04:00;;;;;;;5.77;5.47;;;15.30;64.00;;;;;;5066708;28;43390;-71
2023/01/27 00:06:28;;;;;;;5.80;5.50;;;15.30;64.10;;;;;;5068721;28;44030;-71
2023/01/27 00:08:57;;;;;;;5.83;5.53;;;15.30;64.30;;;;;;5066619;28;45554;-72
2023/01/27 00:14:11;;;;;;;5.67;5.37;;;15.30;64.10;;;;;;5068115;28;43841;-71
2023/01/27 00:16:38;;;;;;;6.00;5.60;;;15.40;63.80;;;;;;5068505;28;43516;-71
2023/01/27 00:19:06;;;;;;;5.73;5.43;;;15.40;63.70;;;;;;5067577;28;43957;-71
2023/01/27 00:24:36;;;;;;;6.07;5.77;;;15.40;63.60;;;;;;5061858;28;43358;-70
2023/01/27 00:27:04;;;;;;;5.40;5.17;;;15.30;63.80;;;;;;5068284;28;43518;-72
2023/01/27 00:29:32;;;;;;;5.50;5.20;;;15.30;64.10;;;;;;5067975;28;43926;-71
2023/01/27 00:34:45;;;;;;;5.50;5.30;;;15.30;64.00;;;;;;5062955;28;44020;-70
2023/01/27 00:37:13;;;;;;;5.50;5.20;;;15.30;64.00;;;;;;5067968;28;43600;-71
2023/01/27 00:39:43;;;;;;;5.70;5.40;;;15.30;64.00;;;;;;5066298;28;46010;-70
2023/01/27 00:42:11;;;;;;;5.53;5.23;;;15.20;64.00;;;;;;5067770;28;43501;-70
2023/01/27 00:45:47;;;;;;;6.03;5.73;;;15.20;64.10;;;;;;5066085;28;43405;-72
2023/01/27 00:47:27;;;;;;;5.90;5.60;;;15.20;64.40;;;;;;5060458;28;43384;-72
2023/01/27 00:49:54;;;;;;;6.10;5.80;;;15.30;64.30;;;;;;5065983;28;45402;-71
2023/01/27 00:52:22;;;;;;;5.47;5.27;;;15.40;64.00;;;;;;5066502;28;43421;-70
2023/01/27 00:54:52;;;;;;;5.50;5.30;;;15.50;63.70;;;;;;5067568;28;43358;-71
2023/01/27 00:57:19;;;;;;;6.00;5.70;;;15.50;63.50;;;;;;5068111;28;43476;-71
2023/01/27 00:59:47;;;;;;;5.90;5.60;;;15.50;63.60;;;;;;5065894;28;45653;-70
2023/01/27 01:02:15;;;;;;;5.67;5.40;;;15.40;63.70;;;;;;5067303;28;43398;-71
2023/01/27 01:04:43;;;;;;;5.27;5.07;;;15.40;63.80;;;;;;5067389;28;43441;-71
2023/01/27 01:07:11;;;;;;;5.73;5.43;;;15.40;63.90;;;;;;5067288;28;43420;-71
2023/01/27 01:09:39;;;;;;;5.53;5.23;;;15.30;63.70;;;;;;5066993;28;43898;-72
2023/01/27 01:12:08;;;;;;;5.70;5.40;;;15.40;63.80;;;;;;5068774;28;44639;-71
2023/01/27 01:14:36;;;;;;;5.43;5.23;;;15.30;63.90;;;;;;5067259;28;43462;-70
2023/01/27 01:17:05;;;;;;;5.33;5.10;;;15.30;64.00;;;;;;5065977;28;43420;-71
2023/01/27 01:19:33;;;;;;;5.60;5.30;;;15.30;64.00;;;;;;5066836;28;45143;-72
2023/01/27 01:22:01;;;;;;;5.70;5.40;;;15.20;64.20;;;;;;5065330;28;44314;-70
2023/01/27 01:24:31;;;;;;;5.77;5.47;;;15.30;64.20;;;;;;5065141;28;43339;-72
2023/01/27 01:27:00;;;;;;;5.70;5.40;;;15.30;64.10;;;;;;5067732;28;43404;-71
2023/01/27 01:29:29;;;;;;;6.07;5.77;;;15.30;64.10;;;;;;5064376;28;45851;-71
2023/01/27 01:31:57;;;;;;;5.53;5.30;;;15.30;64.20;;;;;;5065262;28;44576;-71
2023/01/27 01:34:25;;;;;;;5.57;5.30;;;15.20;64.10;;;;;;5062133;28;43873;-71
2023/01/27 01:36:53;;;;;;;5.13;4.93;;;15.20;64.20;;;;;;5067511;28;43446;-72
2023/01/27 01:39:21;;;;;;;5.93;5.63;;;15.20;64.20;;;;;;5065461;28;45612;-72
2023/01/27 01:41:50;;;;;;;5.90;5.60;;;15.20;64.50;;;;;;5065320;28;43462;-71
2023/01/27 01:44:25;;;;;;;5.50;5.20;;;15.30;64.40;;;;;;5065068;28;43419;-72
2023/01/27 01:46:54;;;;;;;5.90;5.60;;;15.40;64.00;;;;;;5067184;28;43450;-72
2023/01/27 01:49:26;;;;;;;5.27;5.07;;;15.40;63.70;;;;;;5065623;28;45563;-72
2023/01/27 01:51:56;;;;;;;5.70;5.50;;;15.40;63.60;;;;;;5063781;28;43407;-71
2023/01/27 01:54:27;;;;;;;6.23;5.93;;;15.40;63.60;;;;;;5066274;28;43454;-72
2023/01/27 01:57:00;;;;;;;6.07;5.73;;;15.40;63.80;;;;;;5066697;28;43927;-72
2023/01/27 01:59:30;;;;;;;6.10;5.70;;;15.30;64.00;;;;;;5065069;28;45527;-71
2023/01/27 02:02:02;;;;;;;5.37;5.17;;;15.30;64.00;;;;;;5066282;28;43335;-72
2023/01/27 02:04:33;;;;;;;5.43;5.23;;;15.30;63.90;;;;;;5066545;28;43423;-71
2023/01/27 02:07:05;;;;;;;6.03;5.73;;;15.30;63.90;;;;;;5067426;28;43450;-71
2023/01/27 02:09:33;;;;;;;5.67;5.37;;;15.30;64.00;;;;;;5066338;28;43883;-72
2023/01/27 02:12:01;;;;;;;5.90;5.60;;;15.30;64.10;;;;;;5064734;28;44804;-70
2023/01/27 02:14:28;;;;;;;5.33;5.03;;;15.20;64.10;;;;;;5066126;28;43425;-71
2023/01/27 02:16:57;;;;;;;5.63;5.40;;;15.20;64.20;;;;;;5065702;28;43612;-72
2023/01/27 02:19:33;;;;;;;6.03;5.73;;;15.20;64.50;;;;;;5062036;28;43866;-70
2023/01/27 02:22:01;;;;;;;6.27;5.97;;;15.30;64.30;;;;;;5065903;28;43471;-72
2023/01/27 02:24:32;;;;;;;5.63;5.43;;;15.30;64.60;;;;;;5064626;28;43392;-71
2023/01/27 02:27:01;;;;;;;5.93;5.63;;;15.30;63.70;;;;;;5065979;28;43497;-70
2023/01/27 02:29:29;;;;;;;5.93;5.60;;;15.40;63.80;;;;;;5064725;28;46711;-71
2023/01/27 02:31:57;;;;;;;5.10;4.90;;;15.30;63.80;;;;;;5065903;28;43948;-70
2023/01/27 02:34:27;;;;;;;5.97;5.67;;;15.30;64.00;;;;;;5058001;28;43482;-70
2023/01/27 02:36:57;;;;;;;5.90;5.60;;;15.30;64.20;;;;;;5066243;28;43567;-71
2023/01/27 02:39:28;;;;;;;5.80;5.50;;;15.30;64.00;;;;;;5064295;28;44064;-71
2023/01/27 02:41:57;;;;;;;5.80;5.50;;;15.30;64.00;;;;;;5068468;28;43466;-71
2023/01/27 02:44:27;;;;;;;5.10;4.90;;;15.30;64.10;;;;;;5068061;28;43498;-70
2023/01/27 02:46:55;;;;;;;5.47;5.27;;;15.20;64.10;;;;;;5085332;28;43428;-71
2023/01/27 02:49:23;;;;;;;5.20;4.90;;;15.20;64.10;;;;;;5067763;28;43711;-73
2023/01/27 02:51:51;;;;;;;5.37;5.17;;;15.20;64.20;;;;;;5067816;28;43421;-71
2023/01/27 02:54:19;;;;;;;6.10;5.80;;;15.20;64.20;;;;;;5069903;28;43379;-70
2023/01/27 02:56:47;;;;;;;5.50;5.30;;;15.20;64.30;;;;;;5069987;28;43320;-72
2023/01/27 02:59:17;;;;;;;5.80;5.50;;;15.20;64.40;;;;;;5064371;28;43934;-71
2023/01/27 03:01:48;;;;;;;5.63;5.43;;;15.20;64.50;;;;;;5067582;28;43494;-70
2023/01/27 03:04:16;;;;;;;5.27;5.07;;;15.20;64.50;;;;;;5068039;28;43445;-71
2023/01/27 03:06:44;;;;;;;5.30;5.10;;;15.20;64.40;;;;;;5067945;28;43628;-73
2023/01/27 03:09:12;;;;;;;5.30;5.10;;;15.20;64.50;;;;;;5067798;28;45421;-71
2023/01/27 03:20:12;;;;;;;5.57;5.37;;;15.20;64.60;;;;;;5048418;28;45749;-72
2023/01/27 03:22:40;;;;;;;5.40;5.20;;;15.30;64.50;;;;;;5066937;28;43491;-71
2023/01/27 03:25:11;;;;;;;5.30;5.10;;;15.40;64.20;;;;;;5067174;28;43404;-71
2023/01/27 03:27:41;;;;;;;5.27;5.07;;;15.50;63.70;;;;;;5061514;28;43824;-73
2023/01/27 03:30:35;;;;;;;6.03;5.73;;;15.70;63.40;;;;;;5064212;28;43924;-71
2023/01/27 03:33:12;;;;;;;5.70;5.50;;;15.90;62.80;;;;;;5066359;28;43848;-72
2023/01/27 03:47:01;;;;;;;5.33;5.13;;;16.50;61.00;;;;;;5068750;28;43448;-71
2023/01/27 03:49:30;;;;;;;5.37;5.07;;;16.50;60.70;;;;;;5068901;28;44111;-71
2023/01/27 03:51:59;;;;;;;5.23;5.03;;;16.50;60.80;;;;;;5067751;28;44093;-70
2023/01/27 03:54:26;;;;;;;4.87;4.67;;;16.40;60.90;;;;;;5066737;28;45192;-71
2023/01/27 03:56:54;;;;;;;5.30;5.10;;;16.30;61.20;;;;;;5066611;28;44168;-72
2023/01/27 03:59:23;;;;;;;5.10;4.90;;;16.10;61.40;;;;;;5067338;28;43440;-72
2023/01/27 04:01:51;;;;;;;5.00;4.80;;;16.00;61.90;;;;;;5069187;28;43958;-72
2023/01/27 04:07:05;;;;;;;5.03;4.83;;;15.80;62.90;;;;;;5068637;28;43323;-72
2023/01/27 04:09:34;;;;;;;5.03;4.83;;;15.70;62.80;;;;;;5067256;28;43546;-72
2023/01/27 04:12:03;;;;;;;4.97;4.67;;;15.60;63.60;;;;;;5066760;28;45334;-72
2023/01/27 04:14:31;;;;;;;4.83;4.63;;;15.60;63.10;;;;;;5066237;28;44750;-72
2023/01/27 04:17:00;;;;;;;4.90;4.70;;;15.50;63.30;;;;;;5068456;28;43501;-71
2023/01/27 04:19:28;;;;;;;5.13;4.93;;;15.40;63.60;;;;;;5066929;28;43420;-71
2023/01/27 04:21:56;;;;;;;5.27;5.07;;;15.40;64.00;;;;;;5061374;28;44063;-70
2023/01/27 04:24:26;;;;;;;5.20;5.00;;;15.40;63.80;;;;;;5067337;28;43414;-71
2023/01/27 04:26:55;;;;;;;5.10;4.90;;;15.40;63.70;;;;;;5063089;28;43379;-72
2023/01/27 04:29:24;;;;;;;4.57;4.47;;;15.30;63.70;;;;;;5062039;28;43543;-71
2023/01/27 04:31:51;;;;;;;4.93;4.73;;;15.30;63.90;;;;;;5061858;28;43844;-71
2023/01/27 04:34:20;;;;;;;4.93;4.73;;;15.30;64.10;;;;;;5064238;28;43967;-70
2023/01/27 04:36:48;;;;;;;4.80;4.60;;;15.20;64.30;;;;;;5067462;28;43452;-71
2023/01/27 04:39:16;;;;;;;4.57;4.37;;;15.30;64.50;;;;;;5068095;28;43560;-71
2023/01/27 04:41:47;;;;;;;4.90;4.70;;;15.40;64.30;;;;;;5067128;28;43812;-70
2023/01/27 04:44:15;;;;;;;4.50;4.40;;;15.50;63.80;;;;;;5067920;28;43418;-71
2023/01/27 04:46:43;;;;;;;4.00;3.90;;;15.60;63.50;;;;;;5068248;28;43371;-70
2023/01/27 04:49:14;;;;;;;4.33;4.23;;;15.60;63.30;;;;;;5067874;28;43450;-70
2023/01/27 04:51:42;;;;;;;4.80;4.60;;;15.50;63.30;;;;;;5067448;28;43914;-70
2023/01/27 04:54:11;;;;;;;4.30;4.20;;;15.50;63.70;;;;;;5065480;28;44420;-71
2023/01/27 04:56:40;;;;;;;4.80;4.60;;;15.50;63.90;;;;;;5067382;28;43369;-71
2023/01/27 04:59:12;;;;;;;4.67;4.47;;;15.40;63.60;;;;;;5066433;28;43475;-70
2023/01/27 05:01:40;;;;;;;4.20;4.10;;;15.40;63.60;;;;;;5067142;28;43598;-73
2023/01/27 05:04:08;;;;;;;4.47;4.27;;;15.40;63.60;;;;;;5065948;28;43880;-71
2023/01/27 05:06:36;;;;;;;4.10;4.00;;;15.40;63.70;;;;;;5067233;28;43426;-71
2023/01/27 05:09:03;;;;;;;4.23;4.13;;;15.40;63.80;;;;;;5063340;28;43983;-71
2023/01/27 05:11:31;;;;;;;4.47;4.27;;;15.30;64.60;;;;;;5067181;28;43598;-71
2023/01/27 05:13:59;;;;;;;3.93;3.83;;;15.30;64.00;;;;;;5067224;28;43934;-70
2023/01/27 05:16:29;;;;;;;4.10;4.00;;;15.40;63.90;;;;;;5067159;28;43495;-71
2023/01/27 05:18:57;;;;;;;4.10;4.00;;;15.40;63.90;;;;;;5065530;28;44102;-71
2023/01/27 05:21:27;;;;;;;3.73;3.63;;;15.30;63.80;;;;;;5061623;28;43863;-70
2023/01/27 05:23:55;;;;;;;4.33;4.13;;;15.30;63.90;;;;;;5064830;28;44744;-70
2023/01/27 05:26:24;;;;;;;4.53;4.23;;;15.30;63.90;;;;;;5067449;28;43384;-72
2023/01/27 05:28:52;;;;;;;5.63;5.10;;;15.30;64.10;;;;;;5066068;28;43580;-71
2023/01/27 05:31:21;;;;;;;5.37;4.87;;;15.30;64.40;;;;;;5066974;28;43906;-71
2023/01/27 05:33:51;;;;;;;5.40;4.90;;;15.40;64.40;;;;;;5064958;28;43390;-71
2023/01/27 05:36:20;;;;;;;7.37;5.23;;;15.50;63.80;;;;;;5065483;28;43458;-71
2023/01/27 05:38:48;;;;;;;7.57;4.90;;;15.50;63.50;;;;;;5067209;28;44321;-70
2023/01/27 05:41:17;;;;;;;5.23;4.73;;;15.50;63.20;;;;;;5066974;28;43899;-71
2023/01/27 05:43:45;;;;;;;5.67;4.63;;;15.50;63.30;;;;;;5065214;28;45092;-71
2023/01/27 05:46:14;;;;;;;6.40;5.37;;;15.50;63.50;;;;;;5065207;28;43952;-70
2023/01/27 05:48:43;;;;;;;7.07;5.20;;;15.40;63.90;;;;;;5066732;28;43782;-71
2023/01/27 05:51:13;;;;;;;7.57;5.37;;;15.40;63.70;;;;;;5066605;28;45129;-72
2023/01/27 05:53:42;;;;;;;5.37;4.87;;;15.40;63.70;;;;;;5068892;28;44811;-71
2023/01/27 05:56:10;;;;;;;5.40;4.70;;;15.40;63.70;;;;;;5066487;28;43442;-71
2023/01/27 05:58:38;;;;;;;6.43;4.97;;;15.30;63.70;;;;;;5066685;28;43494;-71
2023/01/27 06:01:07;;;;;;;5.53;5.03;;;15.30;63.90;;;;;;5064983;28;45927;-71
2023/01/27 06:03:35;;;;;;;6.20;5.10;;;15.30;64.00;;;;;;5066473;28;43403;-71
2023/01/27 06:06:03;;;;;;;6.00;4.93;;;15.30;64.30;;;;;;5066460;28;43351;-72
2023/01/27 06:08:32;;;;;;;5.83;5.27;;;15.30;64.40;;;;;;5066510;28;43428;-71
2023/01/27 06:11:00;;;;;;;5.80;5.03;;;15.40;64.20;;;;;;5065906;28;43857;-71
2023/01/27 06:13:28;;;;;;;6.47;5.50;;;15.40;63.80;;;;;;5066304;28;43374;-71
2023/01/27 06:15:56;;;;;;;5.47;4.97;;;15.40;63.70;;;;;;5065952;28;43884;-71
2023/01/27 06:18:24;;;;;;;5.33;4.90;;;15.40;63.70;;;;;;5066600;28;43455;-70
2023/01/27 06:20:52;;;;;;;5.50;4.87;;;15.30;63.70;;;;;;5066229;28;43921;-70
2023/01/27 06:23:20;;;;;;;5.40;4.90;;;15.30;64.00;;;;;;5064533;28;43547;-72
2023/01/27 06:25:50;;;;;;;4.60;4.30;;;15.30;64.10;;;;;;5061284;28;43497;-72
2023/01/27 06:28:18;;;;;;;5.40;4.90;;;15.30;64.00;;;;;;5066896;28;43497;-71
2023/01/27 06:30:55;;;;;;;5.03;4.30;;;15.30;64.00;;;;;;5065953;28;43586;-71
2023/01/27 06:33:23;;;;;;;5.33;4.80;;;15.30;64.00;;;;;;5063124;28;43434;-70
2023/01/27 06:35:51;;;;;;;5.37;4.90;;;15.30;64.00;;;;;;5065787;28;43458;-70
2023/01/27 06:38:19;;;;;;;5.50;5.00;;;15.30;64.00;;;;;;5066341;28;43751;-70
2023/01/27 06:40:47;;;;;;;5.43;4.90;;;15.20;64.10;;;;;;5064120;28;45850;-72
2023/01/27 06:43:17;;;;;;;4.90;4.50;;;15.20;64.50;;;;;;5064533;28;45121;-72
2023/01/27 06:45:44;;;;;;;5.97;4.63;;;15.40;64.40;;;;;;5065568;28;43366;-70
2023/01/27 06:48:12;;;;;;;5.27;4.30;;;15.40;63.90;;;;;;5065918;28;43470;-71
2023/01/27 06:50:40;;;;;;;5.20;4.70;;;15.50;63.70;;;;;;5065645;28;43934;-72
2023/01/27 06:53:08;;;;;;;5.60;4.30;;;15.50;63.50;;;;;;5065741;28;43423;-71
2023/01/27 06:55:40;;;;;;;5.27;4.80;;;15.40;63.70;;;;;;5065825;28;43313;-71
2023/01/27 06:58:08;;;;;;;5.03;4.30;;;15.40;63.60;;;;;;5066198;28;43884;-72
2023/01/27 07:00:38;;;;;;;4.70;4.30;;;15.40;64.10;;;;;;5065477;28;44444;-70
2023/01/27 07:03:06;;;;;;;4.70;4.23;;;15.40;63.80;;;;;;5059798;28;43469;-72
2023/01/27 07:05:34;;;;;;;4.63;4.20;;;15.40;63.80;;;;;;5059695;28;43766;-70
2023/01/27 07:08:02;;;;;;;4.67;4.27;;;15.30;63.70;;;;;;5062691;28;43473;-71
2023/01/27 07:10:30;;;;;;;5.80;4.73;;;15.30;63.90;;;;;;5059226;28;43962;-70
2023/01/27 07:13:04;;;;;;;4.17;3.87;;;15.30;64.00;;;;;;5063339;28;43972;-71
2023/01/27 07:15:32;;;;;;;5.27;4.27;;;15.30;64.10;;;;;;5060346;28;43445;-71
2023/01/27 07:18:02;;;;;;;4.50;4.10;;;15.30;64.30;;;;;;5064378;28;43610;-70
2023/01/27 07:20:30;;;;;;;3.97;3.73;;;15.30;64.50;;;;;;5065041;28;43895;-72
2023/01/27 07:22:58;;;;;;;4.40;4.00;;;15.40;64.30;;;;;;5063622;28;45171;-70
2023/01/27 07:25:26;;;;;;;4.00;3.70;;;15.40;63.80;;;;;;5065613;28;43548;-70
2023/01/27 07:27:54;;;;;;;4.07;3.77;;;15.50;63.70;;;;;;5066789;28;44059;-71
2023/01/27 07:30:22;;;;;;;4.10;3.80;;;15.40;63.60;;;;;;5068881;28;43596;-70
2023/01/27 07:32:50;;;;;;;4.43;4.10;;;15.40;63.70;;;;;;5068868;28;43482;-70
2023/01/27 07:35:19;;;;;;;4.73;3.83;;;15.40;63.80;;;;;;5065143;28;43431;-70
2023/01/27 07:37:47;;;;;;;4.03;3.73;;;15.30;64.10;;;;;;5068638;28;43566;-70
2023/01/27 07:40:15;;;;;;;3.63;3.40;;;15.30;63.90;;;;;;5068807;28;43774;-71
2023/01/27 07:42:43;;;;;;;4.27;3.97;;;15.30;63.90;;;;;;5067515;28;44047;-70
2023/01/27 07:45:11;;;;;;;3.97;3.77;;;15.30;63.90;;;;;;5071419;28;43416;-71
2023/01/27 07:47:39;;;;;;;4.37;3.97;;;15.30;64.00;;;;;;5069291;28;43346;-72
2023/01/27 07:50:08;;;;;;;4.07;3.77;;;15.30;64.00;;;;;;5067999;28;43861;-70
2023/01/27 07:52:37;;;;;;;4.00;3.70;;;15.30;64.10;;;;;;5066588;28;43930;-71
2023/01/27 07:55:06;;;;;;;4.07;3.77;;;15.20;64.40;;;;;;5062742;28;43394;-72
2023/01/27 07:57:34;;;;;;;3.60;3.40;;;15.30;64.30;;;;;;5069023;28;43458;-72
2023/01/27 08:00:04;;;;;;;3.50;3.20;;;15.20;64.10;;;;;;5065848;28;46143;-72
2023/01/27 08:02:38;;;;;;;3.73;3.43;;;15.30;64.20;;;;;;5065043;28;43437;-71
2023/01/27 08:05:07;;;;;;;3.80;3.50;;;15.20;64.10;;;;;;5068297;28;43485;-72
2023/01/27 08:07:36;;;;;;;3.20;3.00;;;15.20;64.10;;;;;;5068503;28;43537;-72
2023/01/27 08:10:05;;;;;;;3.40;3.10;;;15.20;64.20;;;;;;5066507;28;44317;-70
2023/01/27 08:12:32;;;;;;;3.40;3.20;;;15.20;64.50;;;;;;5068400;28;43404;-72
2023/01/27 08:15:00;;;;;;;3.70;3.50;;;15.20;64.50;;;;;;5068170;28;43418;-71
2023/01/27 08:17:28;;;;;;;4.80;3.80;;;15.40;64.30;;;;;;5068721;28;43440;-71
2023/01/27 08:19:56;;;;;;;3.93;3.63;;;15.40;63.80;;;;;;5067749;28;43739;-72
2023/01/27 08:22:24;;;;;;;3.50;3.20;;;15.50;63.80;;;;;;5068328;28;43378;-71
2023/01/27 08:24:53;;;;;;;3.30;3.20;;;15.40;63.60;;;;;;5068009;28;43523;-71
2023/01/27 08:27:21;;;;;;;2.90;2.80;;;15.40;63.60;;;;;;5068806;28;43523;-71
2023/01/27 08:29:49;;;;;;;3.90;3.60;;;15.40;63.80;;;;;;5067960;28;43834;-70
2023/01/27 08:32:17;;;;;;;3.03;2.90;;;15.40;64.30;;;;;;5067758;28;43431;-71
2023/01/27 08:34:45;;;;;;;3.37;3.17;;;15.40;64.10;;;;;;5066055;28;43357;-72
2023/01/27 08:37:13;;;;;;;3.33;3.13;;;15.30;63.90;;;;;;5067867;28;44110;-71
2023/01/27 08:39:41;;;;;;;2.90;2.80;;;15.30;64.00;;;;;;5065690;28;44010;-72
2023/01/27 08:42:10;;;;;;;3.13;2.93;;;15.30;64.00;;;;;;5067859;28;44718;-71
2023/01/27 08:44:38;;;;;;;3.20;3.00;;;15.30;64.10;;;;;;5067849;28;43922;-71
2023/01/27 08:47:06;;;;;;;3.30;3.10;;;15.30;64.20;;;;;;5068179;28;43582;-71
2023/01/27 08:49:34;;;;;;;2.97;2.87;;;15.20;64.40;;;;;;5067595;28;43906;-71
2023/01/27 08:52:02;;;;;;;3.33;3.13;;;15.30;64.60;;;;;;5067417;28;43458;-71
2023/01/27 08:54:30;;;;;;;2.97;2.87;;;15.40;64.20;;;;;;5067633;28;43494;-70
2023/01/27 08:56:58;;;;;;;3.07;2.87;;;15.40;63.80;;;;;;5068131;28;43426;-71
2023/01/27 08:59:27;;;;;;;3.20;3.00;;;15.40;63.80;;;;;;5067548;28;43677;-71
2023/01/27 09:01:55;;;;;;;2.70;2.60;;;15.40;63.80;;;;;;5067514;28;43466;-70
2023/01/27 09:04:23;;;;;;;3.30;3.00;;;15.30;63.80;;;;;;5067637;28;43461;-71
2023/01/27 09:06:52;;;;;;;3.23;3.03;;;15.30;64.00;;;;;;5063885;28;43409;-71
2023/01/27 09:09:20;;;;;;;3.00;2.87;;;15.30;64.30;;;;;;5067523;28;43926;-70
2023/01/27 09:11:48;;;;;;;2.80;2.70;;;15.30;64.10;;;;;;5067448;28;43442;-72
2023/01/27 09:14:16;;;;;;;2.93;2.73;;;15.30;64.10;;;;;;5065896;28;43453;-72
2023/01/27 09:16:45;;;;;;;2.70;2.60;;;15.30;64.10;;;;;;5066092;28;43371;-71
2023/01/27 09:19:13;;;;;;;2.87;2.67;;;15.30;64.20;;;;;;5067118;28;43920;-70
2023/01/27 09:21:41;;;;;;;3.00;2.80;;;15.20;64.10;;;;;;5066532;28;43410;-70
2023/01/27 09:24:10;;;;;;;2.93;2.83;;;15.20;64.20;;;;;;5067181;28;43431;-70
2023/01/27 09:26:38;;;;;;;2.87;2.77;;;15.20;64.60;;;;;;5065872;28;44072;-71
2023/01/27 09:29:05;;;;;;;2.90;2.80;;;15.30;64.50;;;;;;5067058;28;43918;-70
2023/01/27 09:31:33;;;;;;;2.63;2.53;;;15.40;64.10;;;;;;5066769;28;43751;-70
2023/01/27 09:34:03;;;;;;;2.30;2.20;;;15.50;63.70;;;;;;5066378;28;43546;-71
2023/01/27 09:36:31;;;;;;;2.47;2.37;;;15.40;63.60;;;;;;5067243;28;43609;-71
2023/01/27 09:39:00;;;;;;;3.07;2.87;;;15.40;63.60;;;;;;5069579;28;44016;-71
2023/01/27 09:41:41;;;;;;;2.60;2.50;;;15.40;63.80;;;;;;5066562;28;44502;-70
2023/01/27 09:44:29;;;;;;;2.63;2.53;;;15.30;64.00;;;;;;5067003;28;43468;-71
2023/01/27 09:47:07;;;;;;;2.43;2.33;;;15.30;64.10;;;;;;5066420;28;43503;-71
2023/01/27 09:49:45;;;;;;;2.40;2.30;;;15.30;64.00;;;;;;5066600;28;43603;-71
2023/01/27 09:52:22;;;;;;;2.40;2.30;;;15.30;64.00;;;;;;5066123;28;43501;-71
2023/01/27 09:54:56;;;;;;;2.63;2.53;;;15.30;64.00;;;;;;5066931;28;43427;-71
2023/01/27 09:57:28;;;;;;;2.50;2.40;;;15.30;64.20;;;;;;5064364;28;43828;-72
2023/01/27 10:00:07;;;;;;;2.40;2.30;;;15.30;64.30;;;;;;5066255;28;43940;-71
2023/01/27 10:02:52;;;;;;;2.83;2.63;;;15.20;64.30;;;;;;5066324;28;44017;-72
2023/01/27 10:05:38;;;;;;;2.43;2.33;;;15.20;64.50;;;;;;5067020;28;44070;-71
2023/01/27 10:08:16;;;;;;;2.60;2.50;;;15.20;64.20;;;;;;5059686;28;43641;-70
2023/01/27 10:10:49;;;;;;;2.47;2.40;;;15.30;64.40;;;;;;5064705;28;45765;-71
2023/01/27 10:13:21;;;;;;;2.77;2.63;;;15.20;64.20;;;;;;5065014;28;45279;-71
2023/01/27 10:15:57;;;;;;;2.60;2.50;;;15.20;64.30;;;;;;5066506;28;44261;-71
2023/01/27 10:18:33;;;;;;;2.40;2.30;;;15.20;64.30;;;;;;5066689;28;43391;-72
2023/01/27 10:21:07;;;;;;;2.30;2.20;;;15.20;64.50;;;;;;5063591;28;43917;-71
2023/01/27 10:23:40;;;;;;;2.20;2.10;;;15.20;64.70;;;;;;5065817;28;43510;-72
2023/01/27 10:26:14;;;;;;;2.27;2.20;;;15.30;64.60;;;;;;5061592;28;43743;-72
2023/01/27 10:28:46;;;;;;;2.83;2.73;;;15.40;64.10;;;;;;5061920;28;43398;-70
2023/01/27 10:31:16;;;;;;;2.00;2.00;;;15.50;63.70;;;;;;5065689;28;43789;-71
2023/01/27 10:33:49;;;;;;;2.20;2.20;;;15.40;63.60;;;;;;5065606;28;43402;-71
2023/01/27 10:36:27;;;;;;;2.33;2.23;;;15.40;63.60;;;;;;5065819;28;43548;-72
2023/01/27 10:39:03;;;;;;;2.23;2.13;;;15.40;63.60;;;;;;5064778;28;43516;-71
2023/01/27 10:41:33;;;;;;;2.23;2.13;;;15.40;64.10;;;;;;5064686;28;44862;-70
2023/01/27 10:44:09;;;;;;;2.00;1.90;;;15.30;63.90;;;;;;5065845;28;43853;-70
2023/01/27 10:46:41;;;;;;;2.33;2.23;;;15.30;63.80;;;;;;5066024;28;43418;-71
2023/01/27 10:49:11;;;;;;;2.30;2.20;;;15.40;64.00;;;;;;5060356;28;43966;-70
2023/01/27 10:51:42;;;;;;;2.10;2.03;;;15.30;64.00;;;;;;5064122;28;46096;-72
2023/01/27 10:54:12;;;;;;;1.97;1.97;;;15.30;64.00;;;;;;5065879;28;43447;-71
2023/01/27 10:56:41;;;;;;;2.20;2.17;;;15.30;64.10;;;;;;5065309;28;43802;-71
2023/01/27 10:59:13;;;;;;;1.90;1.90;;;15.30;64.40;;;;;;5066187;28;43886;-70
2023/01/27 11:01:44;;;;;;;2.20;2.10;;;15.30;65.30;;;;;;5066752;28;43590;-71
2023/01/27 11:04:14;;;;;;;2.23;2.13;;;15.30;64.10;;;;;;5069417;28;43422;-71
2023/01/27 11:06:44;;;;;;;2.13;2.03;;;15.40;63.80;;;;;;5067486;28;43464;-71
2023/01/27 11:09:16;;;;;;;2.33;2.23;;;15.40;63.80;;;;;;5069819;28;43988;-72
2023/01/27 11:11:44;;;;;;;2.17;2.10;;;15.40;63.80;;;;;;5069311;28;43926;-70
2023/01/27 11:14:22;;;;;;;2.30;2.20;;;15.30;63.80;;;;;;5067550;28;45183;-71
2023/01/27 11:16:51;;;;;;;2.00;2.00;;;15.30;64.00;;;;;;5067927;28;44007;-70
2023/01/27 11:19:26;;;;;;;2.20;2.13;;;15.30;64.30;;;;;;5069623;28;43460;-71
2023/01/27 11:21:55;;;;;;;1.90;1.90;;;15.30;64.00;;;;;;5068770;28;43850;-71
2023/01/27 11:24:40;;;;;;;2.10;2.00;;;15.30;64.10;;;;;;5063132;28;43435;-70
2023/01/27 11:27:13;;;;;;;1.70;1.70;;;15.30;64.10;;;;;;5068650;28;43405;-70
2023/01/27 11:29:45;;;;;;;1.93;1.93;;;15.30;64.10;;;;;;5071372;28;43449;-70
2023/01/27 11:32:21;;;;;;;1.77;1.77;;;15.30;64.10;;;;;;5070143;28;43739;-70
2023/01/27 11:34:54;;;;;;;2.23;2.20;;;15.20;64.10;;;;;;5065978;28;44694;-70
2023/01/27 11:37:27;;;;;;;1.90;1.90;;;15.30;64.60;;;;;;5068727;28;43893;-71
2023/01/27 11:39:55;;;;;;;1.93;1.93;;;15.30;64.50;;;;;;5068451;28;43474;-70
2023/01/27 11:42:23;;;;;;;2.10;2.00;;;15.40;64.10;;;;;;5067333;28;44067;-70
2023/01/27 11:44:51;;;;;;;2.10;2.03;;;15.50;63.80;;;;;;5067168;28;43452;-70
2023/01/27 11:47:22;;;;;;;1.90;1.80;;;15.50;63.70;;;;;;5062928;28;44075;-71
2023/01/27 11:49:50;;;;;;;2.00;2.00;;;15.40;63.60;;;;;;5062836;28;43972;-70
2023/01/27 11:52:19;;;;;;;1.70;1.70;;;15.40;63.80;;;;;;5064598;28;43863;-72
2023/01/27 11:54:52;;;;;;;2.10;2.00;;;15.40;63.90;;;;;;5063536;28;44711;-70
2023/01/27 11:57:21;;;;;;;1.93;1.93;;;15.40;64.10;;;;;;5063247;28;43503;-71
2023/01/27 11:59:50;;;;;;;1.80;1.80;;;15.30;63.80;;;;;;5064032;28;43498;-73
2023/01/27 12:02:26;;;;;;;1.90;1.90;;;15.40;64.00;;;;;;5064564;28;43890;-71
2023/01/27 12:04:57;;;;;;;2.00;2.00;;;15.30;63.90;;;;;;5064608;28;44999;-71
2023/01/27 12:07:29;;;;;;;1.90;1.90;;;15.30;64.00;;;;;;5060316;28;44059;-70
2023/01/27 12:09:59;;;;;;;1.60;1.60;;;15.30;64.00;;;;;;5063549;28;43657;-70
2023/01/27 12:12:27;;;;;;;1.70;1.70;;;15.30;64.20;;;;;;5061830;28;43744;-70
2023/01/27 12:14:56;;;;;;;1.80;1.80;;;15.30;64.40;;;;;;5064183;28;43349;-71
2023/01/27 12:17:30;;;;;;;1.90;1.83;;;15.30;64.10;;;;;;5064468;28;43539;-72
2023/01/27 12:20:00;;;;;;;1.60;1.60;;;15.30;64.10;;;;;;5067189;28;43441;-72
2023/01/27 12:22:30;;;;;;;1.60;1.60;;;15.30;64.20;;;;;;5064426;28;43928;-71
2023/01/27 12:25:01;;;;;;;1.93;1.83;;;15.30;64.20;;;;;;5060270;28;43418;-71
2023/01/27 12:27:30;;;;;;;1.80;1.80;;;15.20;64.10;;;;;;5067092;28;43441;-70
2023/01/27 12:30:00;;;;;;;1.90;1.90;;;15.30;64.30;;;;;;5068221;28;43402;-71
2023/01/27 12:32:34;;;;;;;2.20;2.10;;;15.20;64.40;;;;;;5067838;28;43973;-72
2023/01/27 12:35:02;;;;;;;1.57;1.57;;;15.30;64.60;;;;;;5063873;28;44117;-71
2023/01/27 12:37:31;;;;;;;1.70;1.70;;;15.40;64.50;;;;;;5072327;28;43416;-72
2023/01/27 12:40:02;;;;;;;1.80;1.80;;;15.50;63.90;;;;;;5067739;28;43440;-71
2023/01/27 12:42:37;;;;;;;1.77;1.77;;;15.60;63.60;;;;;;5067518;28;43940;-71
2023/01/27 12:45:25;;;;;;;1.97;1.97;;;15.60;63.30;;;;;;5064450;28;43403;-71
2023/01/27 12:47:58;;;;;;;1.70;1.70;;;15.50;63.30;;;;;;5064771;28;43459;-72
2023/01/27 12:50:27;;;;;;;1.80;1.80;;;15.50;63.50;;;;;;5067905;28;43358;-70
2023/01/27 12:53:04;;;;;;;1.83;1.83;;;15.50;63.90;;;;;;5067218;28;43931;-71
2023/01/27 12:55:34;;;;;;;1.70;1.70;;;15.40;63.70;;;;;;5065590;28;44321;-71
2023/01/27 12:58:02;;;;;;;1.70;1.70;;;15.40;63.60;;;;;;5067533;28;43458;-70
2023/01/27 13:00:30;;;;;;;1.63;1.60;;;15.40;63.70;;;;;;5067934;28;43466;-71
2023/01/27 13:03:03;;;;;;;1.60;1.60;;;15.40;63.90;;;;;;5067652;28;43860;-71
2023/01/27 13:05:40;;;;;;;1.50;1.50;;;15.30;63.90;;;;;;5065905;28;45142;-71
2023/01/27 13:08:13;;;;;;;1.57;1.57;;;15.30;64.00;;;;;;5065728;28;43422;-71
2023/01/27 13:10:49;;;;;;;1.70;1.70;;;15.30;64.40;;;;;;5066120;28;43925;-71
2023/01/27 13:13:18;;;;;;;1.60;1.60;;;15.30;64.10;;;;;;5063115;28;43902;-70
2023/01/27 13:15:51;;;;;;;1.67;1.67;;;15.30;64.20;;;;;;5067150;28;43401;-71
2023/01/27 13:18:20;;;;;;;1.60;1.60;;;15.30;64.10;;;;;;5066632;28;43509;-71
2023/01/27 13:20:50;;;;;;;1.40;1.40;;;15.30;64.20;;;;;;5067157;28;43799;-71
2023/01/27 13:23:19;;;;;;;1.63;1.63;;;15.30;64.30;;;;;;5067215;28;44608;-71
2023/01/27 13:25:51;;;;;;;1.70;1.70;;;15.30;64.30;;;;;;5063888;28;44266;-71
2023/01/27 13:28:23;;;;;;;1.73;1.73;;;15.20;64.60;;;;;;5067591;28;43411;-71
2023/01/27 13:30:52;;;;;;;1.47;1.47;;;15.30;64.60;;;;;;5067796;28;43407;-71
2023/01/27 13:33:28;;;;;;;1.57;1.57;;;15.40;64.20;;;;;;5064776;28;45132;-70